Terminal Aerodrome Forecast
Issued by NWS Upton, NY

Home | Current Version | Previous Version | Text Only | Print | Product List | Glossary On
Versions: 1 2 3 4 5 6 7 8 9 10 11 12 13 14 15 16 17 18 19 20 21 22 23 24 25 26 27 28 29 30 31
473
FTUS41 KOKX 070924 AAB
TAFJFK
TAF AMD
KJFK 070924Z 0709/0812 04008KT P6SM -RADZ SCT008 OVC012
      TEMPO 0709/0712 3SM -RADZ BKN008
     FM071800 VRB05KT P6SM OVC025
     FM072000 30008KT P6SM BKN025
     FM080100 32009KT P6SM SCT035 SCT150
     FM080700 29007KT P6SM BKN150=

USA.gov is the U.S. government's official web portal to all federal, state and local government web resources and services.